Hovedside
METAR-TAF:

METAR-TAF

Lufthavner :

Gloucester, England

breddegrad: 51-54N, lengdegrad: 002-10W, høyde over havet: 29 m

Gjeldene værobservasjon

Denne rapporten ble laget for 38 minutter siden, klokken 14:20 UTC
Flau vind
Temperatur 8°C
Luftfuktighet 87%
Trykk 1030 hPa
Sikt: 9000 m
Få skyer i en høyde av 800 ft
Overskyet i en høyde av 1000 ft

METAR: EGBJ 231420Z 00000KT 9000 FEW008 OVC010 08/06 Q1030

Tid: 14:58 (14:58 UTC)

Varsel

Denne rapporten ble laget for 1 time og 4 minutter siden, klokken 13:54 UTC
Varsel gyldig fra 23. klokken 15 UTC til 23. klokken 20 UTC
Vind 3 kt fra skiftende retning
Sikt: 8000 m
Spredte skyer i en høyde av 800 ft
Brutte skyer i en høyde av 1000 ft
Midlertidig
fra 23. klokken 15 UTC til 23. klokken 20 UTC
Brutte skyer i en høyde av 800 ft
Sannsynlighet 40%
fra 23. klokken 18 UTC til 23. klokken 20 UTC
Sikt: 4000 m
Brutte skyer i en høyde av 400 ft
dis

TAF: EGBJ 231354Z 2315/2320 VRB03KT 8000 SCT008 BKN010 TEMPO 2315/2320 BKN008 PROB40 2318/2320 4000 BR BKN004

Værobservasjoner og værvarsel for over 4000 flyplasser (METAR- og TAF-rapporter).

Tilgjengelige stasjoner er representert av de røde og gule prikkene på kartet.

Hold musepekeren over prikken for å se navnet på stasjonen.

Klikk så for å se værobservasjoner og -varsler.

For å forandre kartet kan du klikke på den grønne knappen med svart kryss for å zoome inn, på den grønne knappen med strek for å zoome ut, eller på de grønne pilene for å se tilstøtende kart.


METAR-TAF: